sensor_id;sensor_type;location;lat;lon;timestamp;P1;durP1;ratioP1;P2;durP2;ratioP2
15614;SDS011;7907;51.368;6.730;2023-02-10T00:01:57;17.05;;;5.68;;
15614;SDS011;7907;51.368;6.730;2023-02-10T00:04:24;8.18;;;5.30;;
15614;SDS011;7907;51.368;6.730;2023-02-10T00:06:56;10.90;;;5.35;;
15614;SDS011;7907;51.368;6.730;2023-02-10T00:09:26;10.95;;;6.32;;
15614;SDS011;7907;51.368;6.730;2023-02-10T00:11:56;9.60;;;5.83;;
15614;SDS011;7907;51.368;6.730;2023-02-10T00:14:34;8.65;;;4.18;;
15614;SDS011;7907;51.368;6.730;2023-02-10T00:17:01;9.10;;;4.47;;
15614;SDS011;7907;51.368;6.730;2023-02-10T00:19:29;13.95;;;5.78;;
15614;SDS011;7907;51.368;6.730;2023-02-10T00:21:59;15.10;;;7.03;;
15614;SDS011;7907;51.368;6.730;2023-02-10T00:24:35;9.57;;;4.82;;
15614;SDS011;7907;51.368;6.730;2023-02-10T00:27:06;11.02;;;6.05;;
15614;SDS011;7907;51.368;6.730;2023-02-10T00:29:37;7.40;;;5.05;;
15614;SDS011;7907;51.368;6.730;2023-02-10T00:32:04;14.23;;;6.40;;
15614;SDS011;7907;51.368;6.730;2023-02-10T00:34:35;10.70;;;6.57;;
15614;SDS011;7907;51.368;6.730;2023-02-10T00:37:05;13.02;;;6.85;;
15614;SDS011;7907;51.368;6.730;2023-02-10T00:39:38;11.43;;;6.40;;
15614;SDS011;7907;51.368;6.730;2023-02-10T00:42:06;15.70;;;7.90;;
15614;SDS011;7907;51.368;6.730;2023-02-10T00:44:34;7.57;;;6.40;;
15614;SDS011;7907;51.368;6.730;2023-02-10T00:47:02;10.55;;;6.28;;
15614;SDS011;7907;51.368;6.730;2023-02-10T00:49:30;9.43;;;6.85;;
15614;SDS011;7907;51.368;6.730;2023-02-10T00:51:57;10.17;;;6.63;;
15614;SDS011;7907;51.368;6.730;2023-02-10T00:54:32;11.80;;;7.10;;
15614;SDS011;7907;51.368;6.730;2023-02-10T00:57:03;10.20;;;6.55;;
15614;SDS011;7907;51.368;6.730;2023-02-10T00:59:34;11.93;;;6.43;;
15614;SDS011;7907;51.368;6.730;2023-02-10T01:02:03;11.55;;;5.85;;
15614;SDS011;7907;51.368;6.730;2023-02-10T01:04:33;9.63;;;5.35;;
15614;SDS011;7907;51.368;6.730;2023-02-10T01:07:12;10.10;;;6.17;;
15614;SDS011;7907;51.368;6.730;2023-02-10T01:09:40;12.45;;;7.25;;
15614;SDS011;7907;51.368;6.730;2023-02-10T01:12:11;12.37;;;6.33;;
15614;SDS011;7907;51.368;6.730;2023-02-10T01:14:41;8.50;;;5.38;;
15614;SDS011;7907;51.368;6.730;2023-02-10T01:17:10;8.35;;;5.78;;
15614;SDS011;7907;51.368;6.730;2023-02-10T01:19:39;7.22;;;4.75;;
15614;SDS011;7907;51.368;6.730;2023-02-10T01:22:08;7.38;;;5.55;;
15614;SDS011;7907;51.368;6.730;2023-02-10T01:24:37;13.05;;;7.38;;
15614;SDS011;7907;51.368;6.730;2023-02-10T01:27:12;12.02;;;6.50;;
15614;SDS011;7907;51.368;6.730;2023-02-10T01:29:40;12.32;;;6.75;;
15614;SDS011;7907;51.368;6.730;2023-02-10T01:32:09;9.93;;;6.70;;
15614;SDS011;7907;51.368;6.730;2023-02-10T01:34:42;9.77;;;5.67;;
15614;SDS011;7907;51.368;6.730;2023-02-10T01:37:16;10.48;;;6.63;;
15614;SDS011;7907;51.368;6.730;2023-02-10T01:39:47;17.63;;;6.90;;
15614;SDS011;7907;51.368;6.730;2023-02-10T01:42:18;13.57;;;7.10;;
15614;SDS011;7907;51.368;6.730;2023-02-10T01:47:53;11.90;;;5.80;;
15614;SDS011;7907;51.368;6.730;2023-02-10T01:50:30;10.38;;;6.22;;
15614;SDS011;7907;51.368;6.730;2023-02-10T01:53:07;13.60;;;7.50;;
15614;SDS011;7907;51.368;6.730;2023-02-10T01:55:44;10.63;;;6.28;;
15614;SDS011;7907;51.368;6.730;2023-02-10T01:58:21;13.10;;;7.68;;
15614;SDS011;7907;51.368;6.730;2023-02-10T02:00:58;15.30;;;7.43;;
15614;SDS011;7907;51.368;6.730;2023-02-10T02:03:28;14.60;;;7.82;;
15614;SDS011;7907;51.368;6.730;2023-02-10T02:05:58;15.93;;;6.90;;
15614;SDS011;7907;51.368;6.730;2023-02-10T02:08:30;7.50;;;5.82;;
15614;SDS011;7907;51.368;6.730;2023-02-10T02:11:00;10.80;;;5.82;;
15614;SDS011;7907;51.368;6.730;2023-02-10T02:17:05;8.20;;;5.55;;
15614;SDS011;7907;51.368;6.730;2023-02-10T02:23:07;12.27;;;6.72;;
15614;SDS011;7907;51.368;6.730;2023-02-10T02:26:05;9.20;;;5.45;;
15614;SDS011;7907;51.368;6.730;2023-02-10T02:29:04;5.95;;;4.55;;
15614;SDS011;7907;51.368;6.730;2023-02-10T02:32:00;12.90;;;6.47;;
15614;SDS011;7907;51.368;6.730;2023-02-10T02:34:33;9.38;;;5.97;;
15614;SDS011;7907;51.368;6.730;2023-02-10T02:37:16;12.13;;;5.32;;
15614;SDS011;7907;51.368;6.730;2023-02-10T02:39:49;6.43;;;4.38;;
15614;SDS011;7907;51.368;6.730;2023-02-10T02:42:21;11.45;;;7.38;;
15614;SDS011;7907;51.368;6.730;2023-02-10T02:44:52;10.90;;;5.77;;
15614;SDS011;7907;51.368;6.730;2023-02-10T02:47:29;15.20;;;6.45;;
15614;SDS011;7907;51.368;6.730;2023-02-10T02:50:11;10.85;;;5.25;;
15614;SDS011;7907;51.368;6.730;2023-02-10T02:52:50;7.95;;;4.82;;
15614;SDS011;7907;51.368;6.730;2023-02-10T02:55:29;8.85;;;4.65;;
15614;SDS011;7907;51.368;6.730;2023-02-10T02:58:04;9.95;;;5.50;;
15614;SDS011;7907;51.368;6.730;2023-02-10T03:00:39;10.77;;;5.78;;
15614;SDS011;7907;51.368;6.730;2023-02-10T03:03:20;9.68;;;5.68;;
15614;SDS011;7907;51.368;6.730;2023-02-10T03:05:49;10.13;;;5.55;;
15614;SDS011;7907;51.368;6.730;2023-02-10T03:08:17;9.45;;;5.72;;
15614;SDS011;7907;51.368;6.730;2023-02-10T03:10:50;8.70;;;5.35;;
15614;SDS011;7907;51.368;6.730;2023-02-10T03:13:19;17.63;;;6.40;;
15614;SDS011;7907;51.368;6.730;2023-02-10T03:15:47;10.18;;;5.80;;
15614;SDS011;7907;51.368;6.730;2023-02-10T03:18:15;8.63;;;5.82;;
15614;SDS011;7907;51.368;6.730;2023-02-10T03:20:47;11.10;;;6.07;;
15614;SDS011;7907;51.368;6.730;2023-02-10T03:23:22;9.47;;;5.43;;
15614;SDS011;7907;51.368;6.730;2023-02-10T03:25:58;6.55;;;4.95;;
15614;SDS011;7907;51.368;6.730;2023-02-10T03:28:29;8.73;;;5.63;;
15614;SDS011;7907;51.368;6.730;2023-02-10T03:30:56;6.93;;;5.40;;
15614;SDS011;7907;51.368;6.730;2023-02-10T03:33:27;16.98;;;6.68;;
15614;SDS011;7907;51.368;6.730;2023-02-10T03:35:58;9.40;;;5.40;;
15614;SDS011;7907;51.368;6.730;2023-02-10T03:38:28;10.02;;;4.97;;
15614;SDS011;7907;51.368;6.730;2023-02-10T03:41:07;8.15;;;5.32;;
15614;SDS011;7907;51.368;6.730;2023-02-10T03:43:41;7.28;;;5.00;;
15614;SDS011;7907;51.368;6.730;2023-02-10T03:46:09;8.57;;;5.53;;
15614;SDS011;7907;51.368;6.730;2023-02-10T03:48:37;9.55;;;5.72;;
15614;SDS011;7907;51.368;6.730;2023-02-10T03:51:15;15.35;;;6.90;;
15614;SDS011;7907;51.368;6.730;2023-02-10T03:53:47;7.38;;;5.35;;
15614;SDS011;7907;51.368;6.730;2023-02-10T03:56:25;11.35;;;5.45;;
15614;SDS011;7907;51.368;6.730;2023-02-10T03:58:59;9.88;;;4.88;;
15614;SDS011;7907;51.368;6.730;2023-02-10T04:01:33;9.02;;;4.82;;
15614;SDS011;7907;51.368;6.730;2023-02-10T04:04:03;6.80;;;5.20;;
15614;SDS011;7907;51.368;6.730;2023-02-10T04:06:32;8.50;;;5.47;;
15614;SDS011;7907;51.368;6.730;2023-02-10T04:09:03;9.95;;;6.18;;
15614;SDS011;7907;51.368;6.730;2023-02-10T04:11:36;8.52;;;5.97;;
15614;SDS011;7907;51.368;6.730;2023-02-10T04:14:06;9.73;;;5.75;;
15614;SDS011;7907;51.368;6.730;2023-02-10T04:16:45;11.65;;;5.75;;
15614;SDS011;7907;51.368;6.730;2023-02-10T04:19:17;6.50;;;5.13;;
15614;SDS011;7907;51.368;6.730;2023-02-10T04:21:46;9.30;;;5.38;;
15614;SDS011;7907;51.368;6.730;2023-02-10T04:24:15;13.65;;;6.35;;
15614;SDS011;7907;51.368;6.730;2023-02-10T04:26:48;11.45;;;6.13;;
15614;SDS011;7907;51.368;6.730;2023-02-10T04:29:16;11.52;;;5.97;;
15614;SDS011;7907;51.368;6.730;2023-02-10T04:31:46;10.65;;;5.63;;
15614;SDS011;7907;51.368;6.730;2023-02-10T04:34:13;8.52;;;5.00;;
15614;SDS011;7907;51.368;6.730;2023-02-10T04:36:47;9.27;;;5.38;;
15614;SDS011;7907;51.368;6.730;2023-02-10T04:39:21;9.73;;;5.60;;
15614;SDS011;7907;51.368;6.730;2023-02-10T04:41:52;10.68;;;5.35;;
15614;SDS011;7907;51.368;6.730;2023-02-10T04:44:22;9.00;;;6.47;;
15614;SDS011;7907;51.368;6.730;2023-02-10T04:46:54;9.82;;;5.38;;
15614;SDS011;7907;51.368;6.730;2023-02-10T04:49:23;10.10;;;6.32;;
15614;SDS011;7907;51.368;6.730;2023-02-10T04:51:55;10.00;;;5.40;;
15614;SDS011;7907;51.368;6.730;2023-02-10T04:54:25;8.30;;;5.45;;
15614;SDS011;7907;51.368;6.730;2023-02-10T04:56:53;11.10;;;7.13;;
15614;SDS011;7907;51.368;6.730;2023-02-10T04:59:24;11.15;;;5.78;;
15614;SDS011;7907;51.368;6.730;2023-02-10T05:01:51;12.20;;;6.05;;
15614;SDS011;7907;51.368;6.730;2023-02-10T05:04:24;10.43;;;5.57;;
15614;SDS011;7907;51.368;6.730;2023-02-10T05:06:56;8.57;;;5.00;;
15614;SDS011;7907;51.368;6.730;2023-02-10T05:09:27;11.13;;;6.05;;
15614;SDS011;7907;51.368;6.730;2023-02-10T05:11:54;9.18;;;5.82;;
15614;SDS011;7907;51.368;6.730;2023-02-10T05:14:22;13.07;;;5.53;;
15614;SDS011;7907;51.368;6.730;2023-02-10T05:16:53;6.88;;;6.03;;
15614;SDS011;7907;51.368;6.730;2023-02-10T05:19:21;7.28;;;5.82;;
15614;SDS011;7907;51.368;6.730;2023-02-10T05:21:51;10.53;;;5.73;;
15614;SDS011;7907;51.368;6.730;2023-02-10T05:24:25;10.80;;;5.47;;
15614;SDS011;7907;51.368;6.730;2023-02-10T05:26:54;5.50;;;4.15;;
15614;SDS011;7907;51.368;6.730;2023-02-10T05:29:22;14.98;;;6.05;;
15614;SDS011;7907;51.368;6.730;2023-02-10T05:31:54;10.80;;;5.60;;
15614;SDS011;7907;51.368;6.730;2023-02-10T05:34:25;10.68;;;7.40;;
15614;SDS011;7907;51.368;6.730;2023-02-10T05:36:57;10.88;;;6.50;;
15614;SDS011;7907;51.368;6.730;2023-02-10T05:39:27;16.43;;;6.73;;
15614;SDS011;7907;51.368;6.730;2023-02-10T05:41:56;10.88;;;6.38;;
15614;SDS011;7907;51.368;6.730;2023-02-10T05:44:30;10.73;;;6.35;;
15614;SDS011;7907;51.368;6.730;2023-02-10T05:47:00;9.38;;;5.80;;
15614;SDS011;7907;51.368;6.730;2023-02-10T05:49:31;10.27;;;5.53;;
15614;SDS011;7907;51.368;6.730;2023-02-10T05:52:02;9.63;;;6.20;;
15614;SDS011;7907;51.368;6.730;2023-02-10T05:54:29;9.73;;;5.55;;
15614;SDS011;7907;51.368;6.730;2023-02-10T05:57:00;10.05;;;6.35;;
15614;SDS011;7907;51.368;6.730;2023-02-10T05:59:28;8.25;;;6.10;;
15614;SDS011;7907;51.368;6.730;2023-02-10T06:01:58;9.20;;;5.40;;
15614;SDS011;7907;51.368;6.730;2023-02-10T06:04:25;9.80;;;6.00;;
15614;SDS011;7907;51.368;6.730;2023-02-10T06:06:54;7.72;;;5.38;;
15614;SDS011;7907;51.368;6.730;2023-02-10T06:09:25;8.77;;;5.57;;
15614;SDS011;7907;51.368;6.730;2023-02-10T06:11:55;9.55;;;5.90;;
15614;SDS011;7907;51.368;6.730;2023-02-10T06:14:27;8.45;;;5.30;;
15614;SDS011;7907;51.368;6.730;2023-02-10T06:17:00;8.95;;;5.45;;
15614;SDS011;7907;51.368;6.730;2023-02-10T06:19:28;10.52;;;5.07;;
15614;SDS011;7907;51.368;6.730;2023-02-10T06:22:00;9.60;;;4.78;;
15614;SDS011;7907;51.368;6.730;2023-02-10T06:24:34;11.63;;;5.63;;
15614;SDS011;7907;51.368;6.730;2023-02-10T06:27:08;13.23;;;6.00;;
15614;SDS011;7907;51.368;6.730;2023-02-10T06:29:39;10.77;;;5.55;;
15614;SDS011;7907;51.368;6.730;2023-02-10T06:32:10;11.45;;;6.47;;
15614;SDS011;7907;51.368;6.730;2023-02-10T06:34:39;11.27;;;5.77;;
15614;SDS011;7907;51.368;6.730;2023-02-10T06:37:10;11.17;;;6.03;;
15614;SDS011;7907;51.368;6.730;2023-02-10T06:39:50;8.88;;;5.60;;
15614;SDS011;7907;51.368;6.730;2023-02-10T06:42:23;8.10;;;5.83;;
15614;SDS011;7907;51.368;6.730;2023-02-10T06:44:56;7.80;;;4.60;;
15614;SDS011;7907;51.368;6.730;2023-02-10T06:47:31;7.30;;;4.90;;
15614;SDS011;7907;51.368;6.730;2023-02-10T06:50:01;10.05;;;5.18;;
15614;SDS011;7907;51.368;6.730;2023-02-10T06:52:32;12.57;;;5.35;;
15614;SDS011;7907;51.368;6.730;2023-02-10T06:55:09;10.23;;;5.22;;
15614;SDS011;7907;51.368;6.730;2023-02-10T06:57:45;8.43;;;4.95;;
15614;SDS011;7907;51.368;6.730;2023-02-10T07:00:17;9.68;;;5.35;;
15614;SDS011;7907;51.368;6.730;2023-02-10T07:02:54;9.23;;;5.53;;
15614;SDS011;7907;51.368;6.730;2023-02-10T07:05:22;8.23;;;4.78;;
15614;SDS011;7907;51.368;6.730;2023-02-10T07:08:00;7.32;;;5.40;;
15614;SDS011;7907;51.368;6.730;2023-02-10T07:10:49;14.50;;;5.75;;
15614;SDS011;7907;51.368;6.730;2023-02-10T07:13:18;9.55;;;6.30;;
15614;SDS011;7907;51.368;6.730;2023-02-10T07:15:53;9.55;;;6.30;;
15614;SDS011;7907;51.368;6.730;2023-02-10T07:18:38;9.68;;;6.03;;
15614;SDS011;7907;51.368;6.730;2023-02-10T07:24:26;9.27;;;6.65;;
15614;SDS011;7907;51.368;6.730;2023-02-10T07:27:17;7.10;;;4.40;;
15614;SDS011;7907;51.368;6.730;2023-02-10T07:30:22;13.60;;;6.30;;
15614;SDS011;7907;51.368;6.730;2023-02-10T07:32:59;7.97;;;5.70;;
15614;SDS011;7907;51.368;6.730;2023-02-10T07:35:33;13.63;;;5.60;;
15614;SDS011;7907;51.368;6.730;2023-02-10T07:38:27;11.73;;;5.85;;
15614;SDS011;7907;51.368;6.730;2023-02-10T07:41:42;9.48;;;4.93;;
15614;SDS011;7907;51.368;6.730;2023-02-10T07:44:43;9.18;;;6.28;;
15614;SDS011;7907;51.368;6.730;2023-02-10T07:56:02;11.30;;;6.35;;
15614;SDS011;7907;51.368;6.730;2023-02-10T07:58:12;9.63;;;5.43;;
15614;SDS011;7907;51.368;6.730;2023-02-10T08:11:33;11.23;;;6.38;;
15614;SDS011;7907;51.368;6.730;2023-02-10T08:14:42;11.02;;;7.38;;
15614;SDS011;7907;51.368;6.730;2023-02-10T08:17:56;10.50;;;6.22;;
15614;SDS011;7907;51.368;6.730;2023-02-10T08:20:52;7.55;;;5.57;;
15614;SDS011;7907;51.368;6.730;2023-02-10T08:23:45;11.38;;;6.45;;
15614;SDS011;7907;51.368;6.730;2023-02-10T08:26:28;11.20;;;6.70;;
15614;SDS011;7907;51.368;6.730;2023-02-10T08:29:41;9.20;;;6.30;;
15614;SDS011;7907;51.368;6.730;2023-02-10T08:55:24;7.60;;;5.75;;
15614;SDS011;7907;51.368;6.730;2023-02-10T08:58:19;14.30;;;7.13;;
15614;SDS011;7907;51.368;6.730;2023-02-10T09:04:44;8.25;;;5.05;;
15614;SDS011;7907;51.368;6.730;2023-02-10T09:07:38;13.73;;;6.50;;
15614;SDS011;7907;51.368;6.730;2023-02-10T09:10:41;16.75;;;6.28;;
15614;SDS011;7907;51.368;6.730;2023-02-10T09:13:29;8.30;;;6.13;;
15614;SDS011;7907;51.368;6.730;2023-02-10T09:16:30;11.82;;;5.75;;
15614;SDS011;7907;51.368;6.730;2023-02-10T09:19:03;10.27;;;6.07;;
15614;SDS011;7907;51.368;6.730;2023-02-10T09:21:39;12.93;;;5.70;;
15614;SDS011;7907;51.368;6.730;2023-02-10T09:24:27;8.68;;;5.68;;
15614;SDS011;7907;51.368;6.730;2023-02-10T09:30:37;9.95;;;6.05;;
15614;SDS011;7907;51.368;6.730;2023-02-10T09:33:09;13.93;;;6.97;;
15614;SDS011;7907;51.368;6.730;2023-02-10T09:35:54;14.60;;;6.15;;
15614;SDS011;7907;51.368;6.730;2023-02-10T09:38:54;9.65;;;5.63;;
15614;SDS011;7907;51.368;6.730;2023-02-10T09:41:52;12.60;;;6.60;;
15614;SDS011;7907;51.368;6.730;2023-02-10T09:44:53;13.23;;;6.75;;
15614;SDS011;7907;51.368;6.730;2023-02-10T09:47:35;10.00;;;6.05;;
15614;SDS011;7907;51.368;6.730;2023-02-10T09:50:25;13.45;;;6.47;;
15614;SDS011;7907;51.368;6.730;2023-02-10T09:53:03;11.63;;;6.88;;
15614;SDS011;7907;51.368;6.730;2023-02-10T09:56:00;16.98;;;6.32;;
15614;SDS011;7907;51.368;6.730;2023-02-10T09:58:36;10.55;;;5.90;;
15614;SDS011;7907;51.368;6.730;2023-02-10T10:01:24;10.82;;;5.70;;
15614;SDS011;7907;51.368;6.730;2023-02-10T10:03:58;12.48;;;6.85;;
15614;SDS011;7907;51.368;6.730;2023-02-10T10:06:35;11.87;;;7.03;;
15614;SDS011;7907;51.368;6.730;2023-02-10T10:09:08;12.93;;;7.63;;
15614;SDS011;7907;51.368;6.730;2023-02-10T10:12:02;10.60;;;7.30;;
15614;SDS011;7907;51.368;6.730;2023-02-10T10:14:51;14.68;;;5.60;;
15614;SDS011;7907;51.368;6.730;2023-02-10T10:17:36;10.75;;;6.50;;
15614;SDS011;7907;51.368;6.730;2023-02-10T10:23:57;8.98;;;5.25;;
15614;SDS011;7907;51.368;6.730;2023-02-10T10:30:06;8.90;;;5.32;;
15614;SDS011;7907;51.368;6.730;2023-02-10T10:32:54;8.38;;;4.82;;
15614;SDS011;7907;51.368;6.730;2023-02-10T10:35:55;11.98;;;6.00;;
15614;SDS011;7907;51.368;6.730;2023-02-10T10:38:46;16.77;;;6.32;;
15614;SDS011;7907;51.368;6.730;2023-02-10T10:41:53;12.15;;;6.32;;
15614;SDS011;7907;51.368;6.730;2023-02-10T10:45:19;18.55;;;7.70;;
15614;SDS011;7907;51.368;6.730;2023-02-10T10:48:25;12.57;;;7.25;;
15614;SDS011;7907;51.368;6.730;2023-02-10T10:51:14;11.93;;;6.18;;
15614;SDS011;7907;51.368;6.730;2023-02-10T10:54:04;8.15;;;5.32;;
15614;SDS011;7907;51.368;6.730;2023-02-10T10:57:02;13.45;;;5.32;;
15614;SDS011;7907;51.368;6.730;2023-02-10T10:59:54;12.27;;;6.28;;
15614;SDS011;7907;51.368;6.730;2023-02-10T11:02:32;10.77;;;4.57;;
15614;SDS011;7907;51.368;6.730;2023-02-10T11:05:33;4.10;;;3.75;;
15614;SDS011;7907;51.368;6.730;2023-02-10T11:08:20;7.75;;;4.55;;
15614;SDS011;7907;51.368;6.730;2023-02-10T11:11:02;7.20;;;5.25;;
15614;SDS011;7907;51.368;6.730;2023-02-10T11:13:59;7.25;;;4.47;;
15614;SDS011;7907;51.368;6.730;2023-02-10T11:16:45;8.68;;;5.00;;
15614;SDS011;7907;51.368;6.730;2023-02-10T11:19:29;4.82;;;3.13;;
15614;SDS011;7907;51.368;6.730;2023-02-10T11:22:12;6.00;;;4.82;;
15614;SDS011;7907;51.368;6.730;2023-02-10T11:25:03;5.65;;;4.10;;
15614;SDS011;7907;51.368;6.730;2023-02-10T11:31:03;4.50;;;2.88;;
15614;SDS011;7907;51.368;6.730;2023-02-10T11:34:16;8.85;;;4.78;;
15614;SDS011;7907;51.368;6.730;2023-02-10T11:37:10;7.90;;;3.38;;
15614;SDS011;7907;51.368;6.730;2023-02-10T11:39:59;1.50;;;1.40;;
15614;SDS011;7907;51.368;6.730;2023-02-10T11:42:32;12.82;;;2.95;;
15614;SDS011;7907;51.368;6.730;2023-02-10T11:45:15;6.05;;;2.85;;
15614;SDS011;7907;51.368;6.730;2023-02-10T11:48:16;9.38;;;3.10;;
15614;SDS011;7907;51.368;6.730;2023-02-10T11:50:47;7.50;;;3.22;;
15614;SDS011;7907;51.368;6.730;2023-02-10T11:53:31;6.53;;;3.25;;
15614;SDS011;7907;51.368;6.730;2023-02-10T11:56:02;1.70;;;1.60;;
15614;SDS011;7907;51.368;6.730;2023-02-10T12:01:25;1.63;;;1.48;;
15614;SDS011;7907;51.368;6.730;2023-02-10T12:04:16;3.90;;;2.97;;
15614;SDS011;7907;51.368;6.730;2023-02-10T12:07:06;6.70;;;3.00;;
15614;SDS011;7907;51.368;6.730;2023-02-10T12:09:52;5.57;;;2.63;;
15614;SDS011;7907;51.368;6.730;2023-02-10T12:12:24;4.35;;;2.22;;
15614;SDS011;7907;51.368;6.730;2023-02-10T12:15:14;8.18;;;2.20;;
15614;SDS011;7907;51.368;6.730;2023-02-10T12:21:04;9.10;;;2.72;;
15614;SDS011;7907;51.368;6.730;2023-02-10T12:24:06;4.68;;;2.72;;
15614;SDS011;7907;51.368;6.730;2023-02-10T12:26:52;4.75;;;2.90;;
15614;SDS011;7907;51.368;6.730;2023-02-10T12:29:40;3.45;;;2.20;;
15614;SDS011;7907;51.368;6.730;2023-02-10T12:32:25;1.63;;;1.50;;
15614;SDS011;7907;51.368;6.730;2023-02-10T12:35:06;5.82;;;2.55;;
15614;SDS011;7907;51.368;6.730;2023-02-10T12:37:42;5.77;;;3.13;;
15614;SDS011;7907;51.368;6.730;2023-02-10T12:40:21;1.95;;;1.85;;
15614;SDS011;7907;51.368;6.730;2023-02-10T12:42:58;4.75;;;2.65;;
15614;SDS011;7907;51.368;6.730;2023-02-10T12:45:33;2.90;;;2.40;;
15614;SDS011;7907;51.368;6.730;2023-02-10T12:48:16;2.10;;;1.38;;
15614;SDS011;7907;51.368;6.730;2023-02-10T12:50:58;12.25;;;1.88;;
15614;SDS011;7907;51.368;6.730;2023-02-10T12:53:45;4.50;;;1.52;;
15614;SDS011;7907;51.368;6.730;2023-02-10T12:56:17;2.70;;;1.88;;
15614;SDS011;7907;51.368;6.730;2023-02-10T12:58:53;6.82;;;2.95;;
15614;SDS011;7907;51.368;6.730;2023-02-10T13:01:25;4.05;;;2.88;;
15614;SDS011;7907;51.368;6.730;2023-02-10T13:03:57;1.70;;;1.60;;
15614;SDS011;7907;51.368;6.730;2023-02-10T13:06:31;3.97;;;2.67;;
15614;SDS011;7907;51.368;6.730;2023-02-10T13:09:03;3.00;;;2.33;;
15614;SDS011;7907;51.368;6.730;2023-02-10T13:11:38;5.40;;;3.03;;
15614;SDS011;7907;51.368;6.730;2023-02-10T13:14:13;7.22;;;3.22;;
15614;SDS011;7907;51.368;6.730;2023-02-10T13:16:51;3.72;;;2.50;;
15614;SDS011;7907;51.368;6.730;2023-02-10T13:19:23;3.75;;;2.80;;
15614;SDS011;7907;51.368;6.730;2023-02-10T13:21:57;5.15;;;3.00;;
15614;SDS011;7907;51.368;6.730;2023-02-10T13:24:30;5.27;;;2.70;;
15614;SDS011;7907;51.368;6.730;2023-02-10T13:27:11;4.23;;;3.60;;
15614;SDS011;7907;51.368;6.730;2023-02-10T13:29:54;4.38;;;2.17;;
15614;SDS011;7907;51.368;6.730;2023-02-10T13:32:32;2.97;;;2.38;;
15614;SDS011;7907;51.368;6.730;2023-02-10T13:35:12;20.67;;;3.10;;
15614;SDS011;7907;51.368;6.730;2023-02-10T13:37:42;6.32;;;2.72;;
15614;SDS011;7907;51.368;6.730;2023-02-10T13:40:14;4.18;;;2.70;;
15614;SDS011;7907;51.368;6.730;2023-02-10T13:42:48;3.30;;;2.45;;
15614;SDS011;7907;51.368;6.730;2023-02-10T13:45:20;5.00;;;2.10;;
15614;SDS011;7907;51.368;6.730;2023-02-10T13:47:51;3.83;;;1.75;;
15614;SDS011;7907;51.368;6.730;2023-02-10T13:50:23;5.07;;;3.58;;
15614;SDS011;7907;51.368;6.730;2023-02-10T13:52:53;2.70;;;1.58;;
15614;SDS011;7907;51.368;6.730;2023-02-10T13:55:27;4.80;;;2.45;;
15614;SDS011;7907;51.368;6.730;2023-02-10T13:58:18;4.70;;;2.33;;
15614;SDS011;7907;51.368;6.730;2023-02-10T14:00:55;2.50;;;1.10;;
15614;SDS011;7907;51.368;6.730;2023-02-10T14:03:23;3.88;;;2.55;;
15614;SDS011;7907;51.368;6.730;2023-02-10T14:05:53;6.23;;;2.37;;
15614;SDS011;7907;51.368;6.730;2023-02-10T14:08:27;5.65;;;3.78;;
15614;SDS011;7907;51.368;6.730;2023-02-10T14:10:57;5.63;;;3.47;;
15614;SDS011;7907;51.368;6.730;2023-02-10T14:13:27;3.85;;;2.85;;
15614;SDS011;7907;51.368;6.730;2023-02-10T14:15:59;5.00;;;2.63;;
15614;SDS011;7907;51.368;6.730;2023-02-10T14:18:28;2.58;;;1.73;;
15614;SDS011;7907;51.368;6.730;2023-02-10T14:20:57;4.43;;;2.35;;
15614;SDS011;7907;51.368;6.730;2023-02-10T14:23:26;4.90;;;2.60;;
15614;SDS011;7907;51.368;6.730;2023-02-10T14:25:57;5.57;;;3.17;;
15614;SDS011;7907;51.368;6.730;2023-02-10T14:28:27;4.25;;;2.80;;
15614;SDS011;7907;51.368;6.730;2023-02-10T14:31:00;3.80;;;2.85;;
15614;SDS011;7907;51.368;6.730;2023-02-10T14:33:32;3.20;;;2.90;;
15614;SDS011;7907;51.368;6.730;2023-02-10T14:36:03;3.67;;;2.63;;
15614;SDS011;7907;51.368;6.730;2023-02-10T14:38:34;2.65;;;1.73;;
15614;SDS011;7907;51.368;6.730;2023-02-10T14:41:01;3.38;;;1.88;;
15614;SDS011;7907;51.368;6.730;2023-02-10T14:43:29;4.05;;;2.85;;
15614;SDS011;7907;51.368;6.730;2023-02-10T14:45:59;1.70;;;1.48;;
15614;SDS011;7907;51.368;6.730;2023-02-10T14:48:28;4.40;;;3.35;;
15614;SDS011;7907;51.368;6.730;2023-02-10T14:51:00;5.65;;;2.10;;
15614;SDS011;7907;51.368;6.730;2023-02-10T14:53:30;3.70;;;2.05;;
15614;SDS011;7907;51.368;6.730;2023-02-10T14:55:57;3.05;;;2.30;;
15614;SDS011;7907;51.368;6.730;2023-02-10T14:58:26;5.22;;;2.90;;
15614;SDS011;7907;51.368;6.730;2023-02-10T15:00:54;4.55;;;3.08;;
15614;SDS011;7907;51.368;6.730;2023-02-10T15:03:26;4.57;;;2.15;;
15614;SDS011;7907;51.368;6.730;2023-02-10T15:05:54;1.77;;;1.67;;
15614;SDS011;7907;51.368;6.730;2023-02-10T15:08:27;1.88;;;1.77;;
15614;SDS011;7907;51.368;6.730;2023-02-10T15:11:09;4.13;;;2.65;;
15614;SDS011;7907;51.368;6.730;2023-02-10T15:13:42;4.30;;;3.40;;
15614;SDS011;7907;51.368;6.730;2023-02-10T15:16:14;3.10;;;2.80;;
15614;SDS011;7907;51.368;6.730;2023-02-10T15:18:44;5.03;;;2.17;;
15614;SDS011;7907;51.368;6.730;2023-02-10T15:21:24;3.38;;;2.42;;
15614;SDS011;7907;51.368;6.730;2023-02-10T15:23:54;3.05;;;2.20;;
15614;SDS011;7907;51.368;6.730;2023-02-10T15:26:24;4.50;;;3.05;;
15614;SDS011;7907;51.368;6.730;2023-02-10T15:29:08;3.95;;;2.58;;
15614;SDS011;7907;51.368;6.730;2023-02-10T15:31:37;1.92;;;1.23;;
15614;SDS011;7907;51.368;6.730;2023-02-10T15:34:16;12.55;;;3.00;;
15614;SDS011;7907;51.368;6.730;2023-02-10T15:36:47;6.00;;;1.40;;
15614;SDS011;7907;51.368;6.730;2023-02-10T15:39:19;3.80;;;1.60;;
15614;SDS011;7907;51.368;6.730;2023-02-10T15:41:58;3.72;;;2.15;;
15614;SDS011;7907;51.368;6.730;2023-02-10T15:44:29;3.00;;;2.08;;
15614;SDS011;7907;51.368;6.730;2023-02-10T15:49:57;1.80;;;1.20;;
15614;SDS011;7907;51.368;6.730;2023-02-10T15:52:26;1.75;;;1.52;;
15614;SDS011;7907;51.368;6.730;2023-02-10T15:54:56;8.40;;;2.15;;
15614;SDS011;7907;51.368;6.730;2023-02-10T15:57:26;2.00;;;1.90;;
15614;SDS011;7907;51.368;6.730;2023-02-10T15:59:53;3.38;;;1.17;;
15614;SDS011;7907;51.368;6.730;2023-02-10T16:02:20;4.63;;;2.50;;
15614;SDS011;7907;51.368;6.730;2023-02-10T16:04:50;3.03;;;2.05;;
15614;SDS011;7907;51.368;6.730;2023-02-10T16:07:19;1.90;;;1.77;;
15614;SDS011;7907;51.368;6.730;2023-02-10T16:09:48;7.85;;;3.45;;
15614;SDS011;7907;51.368;6.730;2023-02-10T16:12:18;4.45;;;2.03;;
15614;SDS011;7907;51.368;6.730;2023-02-10T16:14:46;5.80;;;3.22;;
15614;SDS011;7907;51.368;6.730;2023-02-10T16:17:15;3.00;;;1.70;;
15614;SDS011;7907;51.368;6.730;2023-02-10T16:19:49;2.47;;;1.33;;
15614;SDS011;7907;51.368;6.730;2023-02-10T16:22:24;4.47;;;2.65;;
15614;SDS011;7907;51.368;6.730;2023-02-10T16:24:51;1.80;;;1.70;;
15614;SDS011;7907;51.368;6.730;2023-02-10T16:27:18;2.38;;;2.17;;
15614;SDS011;7907;51.368;6.730;2023-02-10T16:29:46;8.32;;;2.65;;
15614;SDS011;7907;51.368;6.730;2023-02-10T16:32:13;3.65;;;2.83;;
15614;SDS011;7907;51.368;6.730;2023-02-10T16:34:40;5.20;;;3.40;;
15614;SDS011;7907;51.368;6.730;2023-02-10T16:37:08;6.50;;;3.13;;
15614;SDS011;7907;51.368;6.730;2023-02-10T16:39:54;5.00;;;2.40;;
15614;SDS011;7907;51.368;6.730;2023-02-10T16:42:21;3.65;;;1.92;;
15614;SDS011;7907;51.368;6.730;2023-02-10T16:44:48;4.45;;;2.78;;
15614;SDS011;7907;51.368;6.730;2023-02-10T16:47:16;3.33;;;2.47;;
15614;SDS011;7907;51.368;6.730;2023-02-10T16:49:44;3.53;;;2.58;;
15614;SDS011;7907;51.368;6.730;2023-02-10T16:52:12;4.07;;;2.40;;
15614;SDS011;7907;51.368;6.730;2023-02-10T16:54:49;4.93;;;1.48;;
15614;SDS011;7907;51.368;6.730;2023-02-10T16:57:20;8.30;;;3.70;;
15614;SDS011;7907;51.368;6.730;2023-02-10T16:59:48;5.95;;;2.97;;
15614;SDS011;7907;51.368;6.730;2023-02-10T17:02:15;5.13;;;3.42;;
15614;SDS011;7907;51.368;6.730;2023-02-10T17:04:42;7.38;;;3.10;;
15614;SDS011;7907;51.368;6.730;2023-02-10T17:07:09;3.08;;;2.78;;
15614;SDS011;7907;51.368;6.730;2023-02-10T17:09:38;4.37;;;3.40;;
15614;SDS011;7907;51.368;6.730;2023-02-10T17:12:05;5.07;;;3.60;;